Hudsonville, MI

6:58 PM EDT on October 17, 2017 (GMT -0400)
MMIHVL | | Change Station

Elev 629 ft 42.86 °N, 85.89 °W | Updated 162 days ago

Clear
Clear
44.0 °F
Feels Like 44 °F
N
3.0
Wind Variable Wind from WSW

Today
High -- | Low -- °F
--% Chance of Precip.
Yesterday
High -- | Low -- °F
Precip. -- in
Pressure 30.11 in
Visibility 10.0 miles
Clouds Clear
Windchill 44 °F
Dew Point 25 °F
Humidity 46%
Rainfall 0.00 in
Snow Depth Not available.
7:59 AM 6:57 PM
Waning Crescent, 4% visible
METAR KBIV 172253Z AUTO 23017KT 10SM CLR 18/06 A3011 RMK AO2 PK WND 22027/2158 SLP195 T01780061
Pressure 30.11 in
Visibility 10.0 miles
Clouds Clear
Windchill 44 °F
Dew Point 25 °F
Humidity 46%
Rainfall 0.00 in
Snow Depth Not available.
7:59 AM 6:57 PM
Waning Crescent, 4% visible
METAR KBIV 172253Z AUTO 23017KT 10SM CLR 18/06 A3011 RMK AO2 PK WND 22027/2158 SLP195 T01780061

Get Severe Weather Alerts

Thanks for signing up!

Be on the lookout for a verification email in your inbox.

You'll start receiving the daily forecast at 6 AM.

×

10-Day Weather Forecast

Almanac

Astronomy

Oct. 17, 2017 Rise Set
Actual Time
Civil Twilight
Nautical Twilight
Astronomical Twilight
Moon
Length of Visible Light
Length of Day
Tomorrow will be .
, % of the Moon is Illuminated

Today's Extremes

State Highs State Lows

Community

WunderPhotos

Category 6

Welcome to Category 6. This is the collective home for Weather Underground's featured writeups by Dr. Jeff Masters (right), Bob Henson (left), Chris Burt, and other regular contributors.

Nearby

Air Quality

  Air Quality AQ Index Pollutant
Not available.

Snow Depth

Station Depth Elevation

Earthquake Activity

City Distance Mag. Time & Date
Minimum magnitude displayed is 2.5.

Coastal Water Temperatures

Place Temperature

Stations

Nearby Weather Stations

Station Location Temp. Windchill Dew Point Humidity Wind Precip. Elev Updated Type
                   

Watches & Warnings

There are currently no watches in effect.